Greeley West High School, Colorado
Current Conditions -  °F | °C
As of 8:15 PM on Tuesday 21 Oct 2014 (Local Time) from KGXY Reporting Station
Clear Clear  
Wind Chill: 16°   Ceiling: Unl
Heat Index: 16°   Visibility: 10mi
Dew Point:   Wind: 6mph
Humidity: 45%   Direction: 10°N
Pressure: 29.9"   Gusts: NA
Location:  40.41412°N, 104.7064°W
Report Text: KGXY 220215Z AUTO 01005KT 10SM CLR 16/04 A2990 RMK AO1
Loading
Personal Weather Stations






























Interactive Weather Map
Tropical Storm Tracking
New forecast layout! Learn more

10-Day Weather Forecast

Advertisements
Track Severe Weather on mobile